KSFF/SFF METAR and TAF weather

Enter ICAO airport designator
Station Type Date Time Source
KSFF METAR 2024/02/26 16:53 UTC NOAA

KSFF 261653Z 27008G17KT 10SM FEW120 02/M07 A2963 RMK AO2 SLP042 T00171072


Station Type Date Time Source
KSFF Decoded METAR 2024/02/26 16:53 UTC NOAA

FELTS FIELD, WA, United States (KSFF) 47-41N 117-19W 609M
Feb 26, 2024 - 11:53 AM EST / 2024.02.26 1653 UTC
Wind: from the W (270 degrees) at 9 MPH (8 KT) gusting to 20 MPH (17 KT):0
Visibility: 10 mile(s):0
Sky conditions: mostly clear
Temperature: 35.1 F (1.7 C)
Dew Point: 19.0 F (-7.2 C)
Relative Humidity: 51%
Pressure (altimeter): 29.63 in. Hg (1003 hPa)
ob: KSFF 261653Z 27008G17KT 10SM FEW120 02/M07 A2963 RMK AO2 SLP042 T00171072
cycle: 17

Station Type Date Time Source
KSFF TAF 2024/02/26 12:22 UTC NOAA